createdAt,value
2017-05-15T00:00:56.511Z,7
2017-05-15T00:10:44.910Z,9
2017-05-15T00:20:44.917Z,9
2017-05-15T00:31:09.729Z,9
2017-05-15T00:40:44.886Z,9
2017-05-15T00:51:11.187Z,8
2017-05-15T01:01:08.910Z,10
2017-05-15T01:11:02.196Z,10
2017-05-15T01:20:44.891Z,9
2017-05-15T01:31:17.574Z,11
2017-05-15T01:40:51.126Z,11
2017-05-15T01:51:00.411Z,11
2017-05-15T02:00:44.893Z,10
2017-05-15T02:10:44.870Z,11
2017-05-15T02:30:46.998Z,10
2017-05-15T02:40:44.847Z,11
2017-05-15T02:50:44.890Z,12
2017-05-15T03:01:23.868Z,12
2017-05-15T03:10:48.684Z,11
2017-05-15T03:20:44.893Z,12
2017-05-15T03:30:44.863Z,12
2017-05-15T03:40:44.872Z,10
2017-05-15T03:50:44.855Z,12
2017-05-15T04:00:47.989Z,12
2017-05-15T04:10:56.113Z,11
2017-05-15T04:20:46.961Z,9
2017-05-15T04:30:44.874Z,10
2017-05-15T04:40:56.270Z,11
2017-05-15T04:51:01.656Z,10
2017-05-15T05:00:44.906Z,12
2017-05-15T05:10:58.684Z,12
2017-05-15T05:21:26.311Z,10
2017-05-15T05:30:56.744Z,8
2017-05-15T05:40:50.654Z,8
2017-05-15T05:51:01.838Z,7
2017-05-15T06:00:47.003Z,7
2017-05-15T06:10:45.952Z,9
2017-05-15T06:20:44.859Z,7
2017-05-15T06:30:44.847Z,7
2017-05-15T06:40:45.884Z,5
2017-05-15T06:50:44.866Z,5
2017-05-15T07:00:46.990Z,5
2017-05-15T07:10:44.893Z,4
2017-05-15T07:20:49.348Z,4
2017-05-15T07:30:47.957Z,4
2017-05-15T07:40:44.937Z,3
2017-05-15T07:50:44.890Z,3
2017-05-15T08:00:45.075Z,2
2017-05-15T08:10:44.903Z,3
2017-05-15T08:20:46.948Z,2
2017-05-15T08:30:45.026Z,2
2017-05-15T08:40:49.949Z,2
2017-05-15T08:51:22.192Z,1
2017-05-15T09:01:07.490Z,1
2017-05-15T09:11:10.891Z,1
2017-05-15T09:21:02.193Z,1
2017-05-15T09:30:44.947Z,2
2017-05-15T09:40:45.132Z,3
2017-05-15T10:00:50.928Z,5
2017-05-15T10:10:55.170Z,7
2017-05-15T10:21:09.901Z,6
2017-05-15T10:30:44.948Z,4
2017-05-15T10:40:44.956Z,4
2017-05-15T10:51:10.128Z,4
2017-05-15T11:00:50.507Z,3
2017-05-15T11:10:58.382Z,3
2017-05-15T11:20:44.919Z,3
2017-05-15T11:40:56.775Z,4
2017-05-15T11:50:45.001Z,3
2017-05-15T12:00:44.976Z,2
2017-05-15T12:11:30.144Z,2
2017-05-15T12:20:44.951Z,2
2017-05-15T12:30:50.183Z,2
2017-05-15T12:40:49.992Z,2
2017-05-15T12:50:45.076Z,3
2017-05-15T13:00:50.111Z,4
2017-05-15T13:10:44.973Z,5
2017-05-15T13:21:00.413Z,4
2017-05-15T13:30:44.963Z,5
2017-05-15T13:50:46.027Z,5
2017-05-15T14:00:45.008Z,4
2017-05-15T14:10:45.011Z,4
2017-05-15T14:21:02.204Z,4
2017-05-15T14:31:27.885Z,4
2017-05-15T14:41:04.164Z,4
2017-05-15T14:50:57.294Z,3
2017-05-15T15:01:22.148Z,3
2017-05-15T15:10:45.003Z,3
2017-05-15T15:21:25.610Z,3
2017-05-15T15:30:45.060Z,4
2017-05-15T15:40:45.027Z,3
2017-05-15T15:50:45.096Z,3
2017-05-15T16:00:45.027Z,3
2017-05-15T16:10:45.037Z,3
2017-05-15T16:20:45.052Z,3
2017-05-15T16:30:45.083Z,4
2017-05-15T16:40:45.725Z,3
2017-05-15T16:50:45.190Z,4
2017-05-15T17:00:45.036Z,3
2017-05-15T17:10:45.099Z,2
2017-05-15T17:20:45.094Z,2
2017-05-15T17:30:45.058Z,2
2017-05-15T17:40:45.123Z,2
2017-05-15T17:50:45.046Z,3
2017-05-15T18:00:45.072Z,2
2017-05-15T18:10:45.144Z,2
2017-05-15T18:20:45.112Z,3
2017-05-15T18:30:45.154Z,2
2017-05-15T18:40:45.158Z,2
2017-05-15T18:50:45.139Z,2
2017-05-15T19:00:45.196Z,2
2017-05-15T19:10:45.839Z,2
2017-05-15T19:20:45.168Z,1
2017-05-15T19:30:45.380Z,2
2017-05-15T19:40:45.385Z,2
2017-05-15T19:50:46.098Z,2
2017-05-15T20:00:45.214Z,2
2017-05-15T20:10:45.276Z,2
2017-05-15T20:20:45.296Z,2
2017-05-15T20:30:45.762Z,3
2017-05-15T20:40:46.708Z,2
2017-05-15T20:50:45.763Z,2
2017-05-15T21:00:45.119Z,3
2017-05-15T21:10:45.124Z,2
2017-05-15T21:20:45.035Z,2
2017-05-15T21:30:45.010Z,3
2017-05-15T21:40:45.366Z,3
2017-05-15T21:50:45.085Z,3
2017-05-15T22:00:45.169Z,2
2017-05-15T22:10:45.139Z,2
2017-05-15T22:20:45.019Z,3
2017-05-15T22:30:45.046Z,3
2017-05-15T22:40:45.027Z,3
2017-05-15T22:50:45.146Z,3
2017-05-15T23:00:44.994Z,3
2017-05-15T23:10:44.968Z,4
2017-05-15T23:20:44.987Z,3
2017-05-15T23:30:45.000Z,3
2017-05-15T23:40:45.013Z,3
2017-05-15T23:50:45.046Z,3
